Time;durP1;ratioP1;P1;durP2;ratioP2;P2;SDS_P1;SDS_P2;PMS_P1;PMS_P2;Temp;Humidity;BMP_temperature;BMP_pressure;BME280_temperature;BME280_humidity;BME280_pressure;Samples;Min_cycle;Max_cycle;Signal;HPM_P1;HPM_P2
2023/05/03 00:02:09;;;;;;;7.82;3.13;;;;;;;5.64;90.23;102891.66;4916121;29;20686;-89
2023/05/03 00:04:35;;;;;;;6.03;3.33;;;;;;;5.64;90.25;102895.09;4902927;29;20034;-88
2023/05/03 00:07:00;;;;;;;7.30;3.30;;;;;;;5.64;90.85;102892.53;4915397;29;20028;-89
2023/05/03 00:09:26;;;;;;;5.95;3.20;;;;;;;5.61;90.88;102897.56;4915047;29;20028;-88
2023/05/03 00:11:52;;;;;;;6.70;3.20;;;;;;;5.54;90.92;102888.78;4916264;29;20023;-88
2023/05/03 00:14:17;;;;;;;7.55;3.33;;;;;;;5.56;90.13;102899.13;4896562;29;20028;-88
2023/05/03 00:16:43;;;;;;;9.25;3.50;;;;;;;5.59;90.85;102893.22;4900429;29;20106;-88
2023/05/03 00:19:08;;;;;;;7.70;3.60;;;;;;;5.57;90.36;102888.91;4914657;29;20052;-86
2023/05/03 00:21:34;;;;;;;6.88;3.30;;;;;;;5.57;90.31;102888.03;4914550;29;20086;-86
2023/05/03 00:23:59;;;;;;;7.93;3.03;;;;;;;5.60;89.15;102887.22;4899980;29;20027;-86
2023/05/03 00:26:25;;;;;;;6.45;3.30;;;;;;;5.58;88.96;102884.63;4901510;29;20405;-86
2023/05/03 00:28:51;;;;;;;6.13;3.33;;;;;;;5.59;90.47;102880.38;4916346;29;20116;-86
2023/05/03 00:31:16;;;;;;;6.72;3.40;;;;;;;5.60;89.85;102884.66;4898584;29;20031;-87
2023/05/03 00:33:42;;;;;;;8.43;3.10;;;;;;;5.64;90.16;102894.22;4897440;29;20039;-87
2023/05/03 00:36:12;;;;;;;7.30;3.25;;;;;;;5.61;89.38;102894.13;4899470;29;20051;-86
2023/05/03 00:38:38;;;;;;;7.15;3.35;;;;;;;5.54;88.86;102878.50;4907795;29;20047;-85
2023/05/03 00:41:04;;;;;;;6.38;3.05;;;;;;;5.55;90.23;102880.25;4915393;29;20052;-86
2023/05/03 00:43:30;;;;;;;5.70;3.05;;;;;;;5.53;89.25;102889.63;4915741;29;20098;-86
2023/05/03 00:45:57;;;;;;;6.68;3.33;;;;;;;5.54;90.62;102887.91;4914993;29;20031;-87
2023/05/03 00:48:22;;;;;;;5.70;3.45;;;;;;;5.51;91.29;102881.00;4916036;29;20075;-86
2023/05/03 00:50:48;;;;;;;6.35;3.13;;;;;;;5.45;90.13;102891.13;4904185;29;20408;-86
2023/05/03 00:53:13;;;;;;;8.95;3.17;;;;;;;5.41;90.89;102896.97;4914442;29;20040;-86
2023/05/03 00:55:40;;;;;;;6.05;3.33;;;;;;;5.38;91.78;102896.91;4915266;29;20597;-86
2023/05/03 00:58:05;;;;;;;5.95;3.22;;;;;;;5.38;91.99;102902.03;4914954;29;20043;-86
2023/05/03 01:00:31;;;;;;;5.88;3.17;;;;;;;5.34;91.32;102896.72;4914118;29;20023;-88
2023/05/03 01:02:57;;;;;;;10.65;3.28;;;;;;;5.29;89.55;102891.47;4916859;29;20035;-88
2023/05/03 01:05:27;;;;;;;8.20;3.22;;;;;;;5.29;89.50;102890.59;4915198;29;20036;-88
2023/05/03 01:08:05;;;;;;;6.03;3.22;;;;;;;5.28;91.33;102892.28;4901835;29;20461;-89
2023/05/03 01:10:39;;;;;;;10.07;3.42;;;;;;;5.28;90.28;102889.72;4915943;29;20401;-88
2023/05/03 01:13:05;;;;;;;;;;;;;;;5.31;88.86;102889.81;4915758;29;20032;-88
2023/05/03 01:15:59;;;;;;;7.57;3.13;;;;;;;5.27;90.47;102881.94;4915703;29;19930;-88
2023/05/03 01:18:31;;;;;;;5.78;3.22;;;;;;;5.20;91.34;102875.75;4918077;29;20056;-89
2023/05/03 01:20:58;;;;;;;7.05;3.05;;;;;;;5.19;91.72;102881.69;4919531;29;20505;-88
2023/05/03 01:23:53;;;;;;;6.50;3.30;;;;;;;5.22;90.14;102889.53;4919210;29;20098;-89
2023/05/03 01:26:24;;;;;;;8.00;3.97;;;;;;;5.21;91.66;102890.34;4902306;29;21034;-89
2023/05/03 01:28:50;;;;;;;9.40;3.50;;;;;;;5.19;91.06;102888.56;4919334;29;20118;-86
2023/05/03 01:31:54;;;;;;;7.72;3.45;;;;;;;5.13;90.84;102897.81;4918747;29;20106;-86
2023/05/03 01:34:24;;;;;;;7.13;3.50;;;;;;;5.15;90.28;102905.59;4901809;29;20533;-86
2023/05/03 01:36:52;;;;;;;7.60;3.33;;;;;;;5.13;90.91;102899.50;4918061;29;20115;-86
2023/05/03 01:39:36;;;;;;;6.57;3.58;;;;;;;5.09;90.50;102902.81;4917426;29;20684;-86
2023/05/03 01:42:03;;;;;;;10.10;3.88;;;;;;;5.08;91.68;102896.81;4917864;29;21002;-86
2023/05/03 01:44:29;;;;;;;10.93;4.10;;;;;;;5.07;92.12;102891.59;4918216;29;20036;-87
2023/05/03 01:46:56;;;;;;;9.02;3.53;;;;;;;5.06;92.80;102895.00;4918319;29;20024;-86
2023/05/03 01:49:22;;;;;;;6.80;3.60;;;;;;;5.01;92.62;102887.16;4918631;29;20054;-86
2023/05/03 01:51:47;;;;;;;7.63;4.05;;;;;;;5.02;91.63;102909.47;4903422;29;20032;-86
2023/05/03 01:54:12;;;;;;;8.63;3.85;;;;;;;5.02;92.63;102901.75;4917422;29;20604;-86
2023/05/03 01:56:38;;;;;;;6.88;3.67;;;;;;;5.02;92.43;102898.31;4900529;29;20085;-87
2023/05/03 01:59:03;;;;;;;8.85;3.72;;;;;;;5.02;92.34;102903.44;4915626;29;20060;-86
2023/05/03 02:01:29;;;;;;;8.38;4.00;;;;;;;4.96;91.87;102896.41;4899308;29;20027;-86
2023/05/03 02:03:54;;;;;;;12.25;3.92;;;;;;;4.96;92.08;102900.69;4917477;29;20119;-86
2023/05/03 02:06:19;;;;;;;7.67;4.07;;;;;;;4.91;92.92;102887.69;4899765;29;20497;-86
2023/05/03 02:08:44;;;;;;;11.15;3.92;;;;;;;4.97;92.28;102893.03;4918128;29;20288;-86
2023/05/03 02:11:10;;;;;;;9.65;4.07;;;;;;;4.95;92.09;102888.66;4917503;29;20035;-86
2023/05/03 02:13:36;;;;;;;7.45;4.03;;;;;;;4.93;92.92;102893.75;4900349;29;20122;-87
2023/05/03 02:16:02;;;;;;;7.35;3.72;;;;;;;4.86;93.09;102886.66;4917646;29;20060;-86
2023/05/03 02:18:30;;;;;;;8.63;4.18;;;;;;;4.89;93.94;102888.47;4900624;29;20080;-86
2023/05/03 02:20:55;;;;;;;7.70;3.80;;;;;;;4.88;93.50;102899.56;4903718;29;20051;-86
2023/05/03 02:23:21;;;;;;;7.65;4.00;;;;;;;4.81;93.68;102885.63;4909135;29;20032;-86
2023/05/03 02:25:46;;;;;;;11.23;3.95;;;;;;;4.81;91.94;102887.34;4901121;29;20035;-86
2023/05/03 02:28:11;;;;;;;7.28;3.95;;;;;;;4.78;91.49;102887.25;4915883;29;20103;-86
2023/05/03 02:30:37;;;;;;;7.20;4.00;;;;;;;4.74;93.35;102892.28;4918028;29;20485;-88
2023/05/03 02:33:02;;;;;;;7.68;4.25;;;;;;;4.69;92.51;102888.69;4916471;29;20064;-88
2023/05/03 02:35:27;;;;;;;7.22;4.18;;;;;;;4.70;93.25;102882.72;4917981;29;20055;-88
2023/05/03 02:37:53;;;;;;;7.38;4.15;;;;;;;4.70;94.19;102877.59;4917651;29;20031;-88
2023/05/03 02:40:18;;;;;;;7.45;3.80;;;;;;;4.63;93.81;102873.06;4917548;29;20397;-88
2023/05/03 02:42:43;;;;;;;11.27;4.10;;;;;;;4.61;93.47;102872.16;4915600;29;20036;-88
2023/05/03 02:45:09;;;;;;;7.63;4.18;;;;;;;4.62;94.05;102868.75;4916385;29;20457;-88
2023/05/03 02:47:34;;;;;;;12.15;5.13;;;;;;;4.62;94.87;102866.19;4899166;29;20023;-89
2023/05/03 02:50:00;;;;;;;7.68;4.20;;;;;;;4.60;94.38;102856.69;4900233;29;20049;-88
2023/05/03 02:52:25;;;;;;;9.05;4.35;;;;;;;4.63;94.60;102859.38;4916561;29;20548;-88
2023/05/03 02:54:50;;;;;;;8.95;4.60;;;;;;;4.53;94.74;102837.63;4904997;29;20557;-88
2023/05/03 02:57:16;;;;;;;8.60;4.07;;;;;;;4.61;95.05;102835.31;4917022;29;20043;-88
2023/05/03 02:59:41;;;;;;;10.85;4.15;;;;;;;4.63;94.15;102842.25;4918059;29;20129;-88
2023/05/03 03:02:06;;;;;;;10.02;4.30;;;;;;;4.61;93.39;102837.88;4900405;29;20039;-89
2023/05/03 03:04:32;;;;;;;12.90;4.65;;;;;;;4.60;93.95;102831.00;4899145;29;20506;-88
2023/05/03 03:06:57;;;;;;;11.02;4.68;;;;;;;4.58;94.28;102830.94;4900998;29;20027;-88
2023/05/03 03:09:22;;;;;;;14.07;4.30;;;;;;;4.55;94.71;102832.56;4917137;29;20056;-86
2023/05/03 03:11:52;;;;;;;14.80;5.35;;;;;;;4.55;94.51;102833.44;4915608;29;20430;-86
2023/05/03 03:14:17;;;;;;;14.32;4.90;;;;;;;4.50;93.95;102836.66;4915018;29;20035;-86
2023/05/03 03:16:44;;;;;;;9.05;4.15;;;;;;;4.53;94.24;102853.03;4916962;29;20035;-86
2023/05/03 03:19:09;;;;;;;9.55;4.40;;;;;;;4.53;95.08;102862.44;4916254;29;20063;-86
2023/05/03 03:21:36;;;;;;;12.27;4.57;;;;;;;4.48;94.69;102856.28;4916060;29;20067;-86
2023/05/03 03:24:02;;;;;;;8.10;4.25;;;;;;;4.41;95.16;102850.06;4916127;29;20454;-86
2023/05/03 03:26:27;;;;;;;7.40;4.38;;;;;;;4.45;95.83;102851.91;4916610;29;20024;-86
2023/05/03 03:28:53;;;;;;;10.93;4.65;;;;;;;4.45;94.03;102859.59;4917216;29;20055;-86
2023/05/03 03:31:18;;;;;;;8.20;4.45;;;;;;;4.45;94.31;102869.00;4916642;29;20036;-86
2023/05/03 03:33:43;;;;;;;10.07;4.50;;;;;;;4.40;93.82;102866.28;4916442;29;20119;-86
2023/05/03 03:36:09;;;;;;;8.90;4.47;;;;;;;4.44;94.46;102862.13;4916509;29;20091;-86
2023/05/03 03:38:34;;;;;;;8.30;4.50;;;;;;;4.42;93.46;102861.22;4913716;29;20046;-86
2023/05/03 03:41:00;;;;;;;10.73;4.68;;;;;;;4.45;93.64;102866.44;4906240;29;20067;-86
2023/05/03 03:43:25;;;;;;;8.48;4.63;;;;;;;4.47;95.15;102862.22;4916886;29;20020;-86
2023/05/03 03:45:51;;;;;;;9.32;4.88;;;;;;;4.46;95.03;102856.22;4915947;29;20135;-86
2023/05/03 03:48:16;;;;;;;7.60;4.47;;;;;;;4.44;94.84;102859.53;4898135;29;20047;-86
2023/05/03 03:50:42;;;;;;;10.18;4.68;;;;;;;4.40;94.03;102852.56;4915529;29;20055;-86
2023/05/03 03:53:09;;;;;;;9.15;4.85;;;;;;;4.39;95.09;102851.69;4915735;29;20038;-86
2023/05/03 03:55:35;;;;;;;11.68;4.88;;;;;;;4.36;94.23;102849.91;4915900;29;20047;-86
2023/05/03 03:58:00;;;;;;;11.27;4.88;;;;;;;4.35;95.32;102858.44;4915010;29;20027;-86
2023/05/03 04:00:26;;;;;;;10.07;4.50;;;;;;;4.34;94.67;102853.25;4905609;29;20131;-86
2023/05/03 04:02:51;;;;;;;9.30;4.93;;;;;;;4.33;94.51;102848.94;4897441;29;20039;-87
2023/05/03 04:05:19;;;;;;;10.75;4.97;;;;;;;4.27;94.91;102846.16;4915103;29;20024;-86
2023/05/03 04:07:45;;;;;;;9.68;5.18;;;;;;;4.31;95.37;102863.41;4915205;29;20506;-86
2023/05/03 04:10:10;;;;;;;10.65;4.88;;;;;;;4.25;94.85;102858.94;4913044;29;20162;-88
2023/05/03 04:12:36;;;;;;;11.18;5.18;;;;;;;4.28;94.96;102868.44;4916019;29;20032;-88
2023/05/03 04:15:03;;;;;;;8.50;4.45;;;;;;;4.26;94.50;102864.94;4914189;29;20031;-88
2023/05/03 04:17:28;;;;;;;11.13;4.45;;;;;;;4.22;94.63;102861.41;4916151;29;20500;-89
2023/05/03 04:19:53;;;;;;;9.57;4.70;;;;;;;4.27;94.46;102879.53;4915132;29;20034;-88
2023/05/03 04:22:19;;;;;;;9.10;4.57;;;;;;;4.24;96.20;102871.69;4898372;29;20126;-89
2023/05/03 04:24:44;;;;;;;9.00;4.57;;;;;;;4.24;96.01;102884.53;4915810;29;20055;-88
2023/05/03 04:27:10;;;;;;;10.45;4.93;;;;;;;4.22;95.97;102881.94;4916588;29;20039;-88
2023/05/03 04:29:37;;;;;;;9.40;4.65;;;;;;;4.20;95.33;102880.13;4906464;29;20028;-88
2023/05/03 04:32:02;;;;;;;8.60;4.72;;;;;;;4.18;96.26;102876.63;4914787;29;20532;-88
2023/05/03 04:34:29;;;;;;;10.45;4.82;;;;;;;4.23;96.73;102877.69;4899729;29;20028;-88
2023/05/03 04:36:54;;;;;;;9.85;5.32;;;;;;;4.22;96.50;102883.63;4916532;29;20035;-88
2023/05/03 04:39:20;;;;;;;9.63;5.13;;;;;;;4.25;96.22;102883.72;4896992;29;20028;-88
2023/05/03 04:41:46;;;;;;;8.90;4.80;;;;;;;4.31;97.36;102889.06;4916166;29;20019;-88
2023/05/03 04:44:13;;;;;;;10.93;5.13;;;;;;;4.32;95.14;102894.25;4915939;29;20032;-88
2023/05/03 04:46:38;;;;;;;10.60;4.95;;;;;;;4.32;94.25;102894.25;4897067;29;20483;-88
2023/05/03 04:49:04;;;;;;;11.60;5.00;;;;;;;4.38;96.34;102899.59;4916572;29;20115;-88
2023/05/03 04:51:30;;;;;;;9.85;5.07;;;;;;;4.42;96.60;102898.03;4919974;29;20055;-88
2023/05/03 04:53:57;;;;;;;10.85;5.38;;;;;;;4.42;95.36;102900.59;4923188;29;20055;-88
2023/05/03 04:56:25;;;;;;;10.38;5.22;;;;;;;4.45;94.54;102908.38;4923068;29;20031;-88
2023/05/03 04:58:51;;;;;;;10.25;5.03;;;;;;;4.53;94.67;102919.81;4923218;29;20039;-88
2023/05/03 05:01:17;;;;;;;12.32;4.82;;;;;;;4.53;94.49;102919.81;4922519;29;20031;-88
2023/05/03 05:03:42;;;;;;;12.15;5.20;;;;;;;4.61;95.91;102930.34;4903058;29;20032;-89
2023/05/03 05:06:09;;;;;;;10.65;4.90;;;;;;;4.64;96.22;102931.31;4922212;29;20038;-88
2023/05/03 05:08:35;;;;;;;11.60;5.18;;;;;;;4.69;96.23;102931.47;4900802;29;20028;-88
2023/05/03 05:11:03;;;;;;;11.55;5.57;;;;;;;4.76;97.06;102931.75;4923056;29;20058;-89
2023/05/03 05:13:28;;;;;;;11.07;5.30;;;;;;;4.80;96.22;102937.84;4922149;29;20032;-88
2023/05/03 05:15:54;;;;;;;10.60;5.47;;;;;;;4.83;95.37;102934.50;4922810;29;20039;-88
2023/05/03 05:18:19;;;;;;;11.07;5.25;;;;;;;4.87;95.74;102937.22;4907546;29;20040;-89
2023/05/03 05:20:45;;;;;;;13.35;5.78;;;;;;;4.92;95.39;102935.66;4922015;29;20504;-89
2023/05/03 05:23:11;;;;;;;12.20;5.28;;;;;;;5.02;96.83;102931.72;4902364;29;20488;-89
2023/05/03 05:25:36;;;;;;;11.15;5.05;;;;;;;5.05;94.98;102939.53;4920997;29;20162;-89
2023/05/03 05:28:01;;;;;;;11.35;5.40;;;;;;;5.05;96.01;102927.53;4921972;29;20032;-87
2023/05/03 05:30:27;;;;;;;10.43;5.20;;;;;;;5.14;95.71;102937.25;4901466;29;20051;-86
2023/05/03 05:32:52;;;;;;;9.93;5.28;;;;;;;5.19;95.71;102932.28;4921512;29;20035;-88
2023/05/03 05:35:20;;;;;;;12.98;5.53;;;;;;;5.19;94.08;102930.56;4919244;29;20452;-93
2023/05/03 05:37:45;;;;;;;11.07;5.53;;;;;;;5.31;95.00;102941.25;4920344;29;20047;-89
2023/05/03 05:40:11;;;;;;;10.30;5.35;;;;;;;5.43;92.60;102943.31;4921875;29;20024;-87
2023/05/03 05:42:37;;;;;;;12.10;5.82;;;;;;;5.50;93.07;102937.53;4920272;29;20028;-87
2023/05/03 05:45:02;;;;;;;10.10;5.22;;;;;;;5.57;92.49;102942.03;4900633;29;20154;-87
2023/05/03 05:47:28;;;;;;;10.35;5.15;;;;;;;5.66;92.47;102933.75;4900492;29;20042;-87
2023/05/03 05:49:53;;;;;;;10.52;5.22;;;;;;;5.78;93.22;102946.97;4918657;29;20079;-87
2023/05/03 05:52:18;;;;;;;11.25;5.57;;;;;;;5.92;90.62;102941.44;4916427;29;20027;-87
2023/05/03 05:54:44;;;;;;;11.40;4.77;;;;;;;6.25;89.71;102938.06;4916707;29;20500;-88
2023/05/03 05:57:09;;;;;;;15.50;5.60;;;;;;;6.80;89.21;102939.53;4901272;29;20287;-89
2023/05/03 05:59:35;;;;;;;12.32;5.25;;;;;;;7.34;85.44;102943.44;4917984;29;20131;-88
2023/05/03 06:02:00;;;;;;;12.45;5.30;;;;;;;7.52;82.92;102940.41;4917578;29;20128;-88
2023/05/03 06:04:26;;;;;;;13.25;5.00;;;;;;;7.53;83.35;102947.31;4917001;29;20369;-89
2023/05/03 06:06:51;;;;;;;11.25;5.22;;;;;;;7.48;85.03;102948.91;4916751;29;20502;-88
2023/05/03 06:09:17;;;;;;;12.98;5.28;;;;;;;7.44;83.81;102947.09;4900567;29;20028;-87
2023/05/03 06:11:42;;;;;;;14.27;5.40;;;;;;;7.51;82.20;102944.69;4918518;29;20119;-88
2023/05/03 06:14:08;;;;;;;14.38;5.00;;;;;;;7.72;82.31;102943.41;4917761;29;20572;-89
2023/05/03 06:16:37;;;;;;;11.85;5.97;;;;;;;7.80;80.82;102944.47;4917609;29;20035;-89
2023/05/03 06:19:03;;;;;;;11.20;5.15;;;;;;;7.78;81.38;102941.00;4916340;29;20063;-89
2023/05/03 06:21:29;;;;;;;9.73;4.82;;;;;;;7.75;80.77;102943.50;4914166;29;20288;-89
2023/05/03 06:23:55;;;;;;;11.35;5.15;;;;;;;7.70;80.66;102935.66;4914018;29;20036;-88
2023/05/03 06:26:22;;;;;;;10.00;4.95;;;;;;;7.62;82.69;102928.59;4914626;29;20040;-89
2023/05/03 06:28:49;;;;;;;10.98;5.15;;;;;;;7.65;80.65;102934.66;4917348;29;20028;-88
2023/05/03 06:31:15;;;;;;;13.40;5.03;;;;;;;7.63;81.45;102933.78;4917230;29;20507;-88
2023/05/03 06:33:41;;;;;;;9.30;4.97;;;;;;;7.74;82.93;102936.59;4921766;29;20032;-88
2023/05/03 06:36:07;;;;;;;11.60;4.65;;;;;;;7.82;85.43;102935.91;4899247;29;20027;-87
2023/05/03 06:38:32;;;;;;;18.33;5.53;;;;;;;7.90;84.68;102924.06;4916418;29;20122;-88
2023/05/03 06:40:58;;;;;;;10.07;5.00;;;;;;;8.03;82.38;102912.25;4915298;29;20039;-88
2023/05/03 06:43:23;;;;;;;10.55;4.70;;;;;;;8.16;81.82;102921.97;4913851;29;20030;-87
2023/05/03 06:45:50;;;;;;;9.98;5.30;;;;;;;8.27;83.35;102923.06;4914219;29;20036;-87
2023/05/03 06:48:20;;;;;;;11.70;4.47;;;;;;;8.35;81.15;102912.03;4919553;29;20028;-87
2023/05/03 06:50:45;;;;;;;9.73;4.88;;;;;;;8.55;82.15;102900.34;4916684;29;20099;-88
2023/05/03 06:53:10;;;;;;;11.88;5.28;;;;;;;9.12;84.92;102908.19;4917654;29;20454;-88
2023/05/03 06:55:36;;;;;;;12.30;5.25;;;;;;;9.90;80.36;102912.72;4916895;29;20028;-88
2023/05/03 06:58:01;;;;;;;10.82;4.70;;;;;;;10.63;73.78;102905.78;4915164;29;20031;-88
2023/05/03 07:00:29;;;;;;;11.63;4.80;;;;;;;11.33;73.33;102907.19;4915737;29;20038;-85
2023/05/03 07:02:55;;;;;;;9.70;4.45;;;;;;;11.86;69.60;102904.91;4916056;29;20083;-86
2023/05/03 07:05:21;;;;;;;7.75;4.60;;;;;;;12.26;67.22;102894.63;4902982;29;20040;-85
2023/05/03 07:07:46;;;;;;;12.98;4.45;;;;;;;12.86;61.23;102895.56;4916079;29;20043;-86
2023/05/03 07:10:12;;;;;;;8.15;4.13;;;;;;;13.25;60.43;102897.28;4917866;29;20056;-86
2023/05/03 07:12:37;;;;;;;9.07;4.10;;;;;;;13.67;57.64;102891.94;4899885;29;20490;-86
2023/05/03 07:15:03;;;;;;;6.82;4.10;;;;;;;14.22;56.91;102896.91;4916400;29;20704;-86
2023/05/03 07:17:28;;;;;;;7.50;3.58;;;;;;;14.89;55.33;102906.88;4917578;29;20047;-86
2023/05/03 07:19:53;;;;;;;7.60;4.00;;;;;;;15.26;56.13;102900.44;4917325;29;20073;-86
2023/05/03 07:22:24;;;;;;;7.32;3.72;;;;;;;15.23;51.16;102903.06;4918413;29;20036;-86
2023/05/03 07:24:51;;;;;;;8.63;4.00;;;;;;;14.99;50.55;102901.56;4917255;29;20384;-86
2023/05/03 07:27:16;;;;;;;9.13;3.88;;;;;;;15.07;54.54;102905.88;4917559;29;20111;-85
2023/05/03 07:29:42;;;;;;;11.13;3.80;;;;;;;15.72;48.66;102898.22;4916898;29;20102;-89
2023/05/03 07:32:07;;;;;;;8.00;3.80;;;;;;;16.79;49.13;102901.91;4917663;29;20043;-88
2023/05/03 07:34:33;;;;;;;8.70;3.92;;;;;;;17.29;47.11;102901.03;4900984;29;20040;-88
2023/05/03 07:36:58;;;;;;;7.57;4.18;;;;;;;17.94;42.48;102893.66;4917494;29;20158;-88
2023/05/03 07:39:24;;;;;;;8.35;3.80;;;;;;;17.87;42.88;102886.81;4898747;29;20114;-88
2023/05/03 07:41:52;;;;;;;10.30;3.95;;;;;;;17.88;43.19;102886.75;4918369;29;20074;-88
2023/05/03 07:44:17;;;;;;;17.48;4.68;;;;;;;18.44;41.42;102880.22;4900982;29;20393;-89
2023/05/03 07:46:43;;;;;;;7.97;4.15;;;;;;;18.94;43.84;102872.88;4915194;29;20654;-89
2023/05/03 07:49:11;;;;;;;14.10;4.53;;;;;;;19.66;41.61;102877.91;4916264;29;20036;-89
2023/05/03 07:51:37;;;;;;;8.73;3.95;;;;;;;20.26;38.36;102866.44;4918171;29;20039;-88
2023/05/03 07:54:03;;;;;;;6.45;3.78;;;;;;;20.69;40.42;102865.03;4916052;29;20063;-88
2023/05/03 07:56:28;;;;;;;8.18;3.60;;;;;;;21.24;38.29;102861.38;4917173;29;20066;-89
2023/05/03 07:58:54;;;;;;;12.32;4.18;;;;;;;21.49;35.89;102864.00;4904050;29;20111;-88
2023/05/03 08:01:20;;;;;;;8.63;3.63;;;;;;;21.60;35.63;102854.75;4917186;29;20071;-90
2023/05/03 08:03:49;;;;;;;6.43;3.58;;;;;;;21.75;37.44;102855.94;4916643;29;20099;-88
2023/05/03 08:06:15;;;;;;;7.60;3.53;;;;;;;22.24;35.70;102852.25;4917640;29;20024;-89
2023/05/03 08:08:43;;;;;;;8.15;4.05;;;;;;;22.49;33.28;102838.91;4914447;29;20087;-89
2023/05/03 08:11:09;;;;;;;7.65;4.00;;;;;;;22.68;33.33;102847.75;4917457;29;20059;-89
2023/05/03 08:13:35;;;;;;;5.85;2.97;;;;;;;22.57;31.82;102844.72;4899464;29;20059;-89
2023/05/03 08:16:01;;;;;;;8.57;3.53;;;;;;;22.62;30.67;102842.75;4902250;29;20027;-88
2023/05/03 08:18:27;;;;;;;19.73;4.30;;;;;;;23.05;33.91;102825.06;4909588;29;20028;-89
2023/05/03 08:20:52;;;;;;;9.10;3.97;;;;;;;23.32;31.07;102836.19;4900146;29;20023;-90
2023/05/03 08:23:18;;;;;;;10.77;4.03;;;;;;;23.23;30.01;102830.38;4918168;29;20024;-89
2023/05/03 08:25:44;;;;;;;8.70;4.22;;;;;;;23.11;29.39;102824.78;4918657;29;20028;-89
2023/05/03 08:28:10;;;;;;;7.07;3.83;;;;;;;23.07;29.74;102836.41;4917289;29;20035;-89
2023/05/03 08:30:35;;;;;;;8.57;3.88;;;;;;;23.26;30.61;102839.09;4917114;29;20100;-89
2023/05/03 08:33:01;;;;;;;7.53;3.90;;;;;;;22.95;30.52;102832.53;4916109;29;20037;-88
2023/05/03 08:35:27;;;;;;;33.10;5.40;;;;;;;22.45;31.61;102845.22;4901038;29;20027;-89
2023/05/03 08:37:52;;;;;;;8.07;3.65;;;;;;;21.82;31.98;102838.09;4911562;29;20486;-89
2023/05/03 08:40:21;;;;;;;10.02;4.05;;;;;;;21.45;34.08;102831.56;4915690;29;20548;-87
2023/05/03 08:42:47;;;;;;;7.07;3.92;;;;;;;21.46;36.39;102825.38;4915302;29;20139;-88
2023/05/03 08:45:14;;;;;;;7.55;4.00;;;;;;;21.10;33.28;102824.91;4915072;29;20031;-87
2023/05/03 08:47:43;;;;;;;8.23;4.43;;;;;;;20.58;33.64;102828.50;4900373;29;20035;-87
2023/05/03 08:50:12;;;;;;;6.78;4.47;;;;;;;19.89;34.95;102829.84;4897716;29;20066;-87
2023/05/03 08:52:42;;;;;;;8.68;3.97;;;;;;;19.20;37.71;102823.09;4914246;29;20493;-87
2023/05/03 08:55:09;;;;;;;6.85;4.10;;;;;;;18.77;37.21;102822.50;4916129;29;20042;-88
2023/05/03 08:57:34;;;;;;;11.48;4.20;;;;;;;18.41;41.64;102826.94;4904856;29;20024;-88
2023/05/03 09:00:00;;;;;;;9.32;3.95;;;;;;;17.97;39.53;102827.97;4917094;29;20036;-88
2023/05/03 09:02:27;;;;;;;8.48;4.10;;;;;;;17.41;38.30;102842.25;4904917;29;20023;-87
2023/05/03 09:04:53;;;;;;;9.00;4.63;;;;;;;16.99;39.08;102842.19;4913591;29;20086;-87
2023/05/03 09:07:21;;;;;;;8.20;4.07;;;;;;;16.59;41.90;102845.47;4913953;29;20408;-87
2023/05/03 09:09:47;;;;;;;6.43;4.00;;;;;;;16.49;41.18;102840.44;4917598;29;20036;-89
2023/05/03 09:12:32;;;;;;;7.68;4.45;;;;;;;16.51;43.73;102833.41;4916167;29;20047;-89
2023/05/03 09:14:57;;;;;;;10.35;4.28;;;;;;;16.41;42.15;102842.28;4917313;29;20039;-89
2023/05/03 09:17:23;;;;;;;9.27;4.63;;;;;;;16.20;43.78;102843.50;4918217;29;20032;-89
2023/05/03 09:19:53;;;;;;;7.43;4.07;;;;;;;16.17;44.29;102843.56;4915676;29;20111;-89
2023/05/03 09:22:19;;;;;;;8.02;4.50;;;;;;;16.16;42.47;102847.06;4914382;29;20028;-90
2023/05/03 09:24:56;;;;;;;7.30;4.32;;;;;;;16.03;42.19;102848.13;4913606;29;20166;-90
2023/05/03 09:27:23;;;;;;;10.52;4.45;;;;;;;15.76;46.91;102839.75;4903183;29;20028;-90
2023/05/03 09:29:48;;;;;;;7.68;4.72;;;;;;;15.83;46.98;102843.13;4905865;29;20028;-90
2023/05/03 09:32:15;;;;;;;15.30;4.88;;;;;;;15.78;45.80;102844.97;4917520;29;20028;-91
2023/05/03 09:34:41;;;;;;;7.43;4.20;;;;;;;15.86;47.14;102847.47;4915787;29;20043;-91
2023/05/03 09:37:07;;;;;;;8.90;4.63;;;;;;;15.83;46.57;102834.47;4901897;29;20087;-91
2023/05/03 09:39:33;;;;;;;8.77;4.50;;;;;;;15.85;45.92;102833.53;4906654;29;20215;-91
2023/05/03 09:42:09;;;;;;;9.63;4.90;;;;;;;15.83;45.58;102837.06;4922198;29;20028;-90
2023/05/03 09:44:50;;;;;;;9.82;4.50;;;;;;;15.89;46.66;102830.00;4903174;29;20028;-90
2023/05/03 09:47:17;;;;;;;8.20;3.88;;;;;;;15.84;45.82;102830.94;4921401;29;20038;-90
2023/05/03 09:49:43;;;;;;;8.80;4.38;;;;;;;15.72;43.76;102831.97;4919668;29;20051;-90
2023/05/03 09:52:10;;;;;;;11.20;4.40;;;;;;;15.52;43.72;102829.59;4909127;29;20416;-89
2023/05/03 09:54:36;;;;;;;7.68;4.32;;;;;;;15.39;49.69;102820.16;4917105;29;20584;-91
2023/05/03 09:57:04;;;;;;;9.38;4.50;;;;;;;15.43;45.95;102814.88;4920595;29;20040;-89
2023/05/03 09:59:33;;;;;;;8.45;4.82;;;;;;;15.54;46.98;102819.16;4918311;29;20028;-90
2023/05/03 10:02:02;;;;;;;7.70;4.40;;;;;;;15.49;44.63;102816.53;4918135;29;20579;-90
2023/05/03 10:04:32;;;;;;;7.78;4.70;;;;;;;15.22;45.62;102812.50;4916346;29;20032;-90
2023/05/03 10:07:03;;;;;;;6.55;4.45;;;;;;;15.06;46.07;102817.94;4915733;29;20019;-89
2023/05/03 10:09:46;;;;;;;16.35;4.90;;;;;;;15.10;47.68;102812.66;4918397;29;20154;-88
2023/05/03 10:12:15;;;;;;;8.80;4.83;;;;;;;15.06;47.55;102826.63;4916145;29;20512;-87
2023/05/03 10:14:43;;;;;;;9.88;4.70;;;;;;;14.93;47.91;102825.03;4902160;29;20036;-87
2023/05/03 10:17:25;;;;;;;10.57;5.20;;;;;;;14.98;49.01;102815.41;4908724;29;20031;-87
2023/05/03 10:19:54;;;;;;;9.75;4.90;;;;;;;14.81;46.58;102820.78;4919525;29;20098;-87
2023/05/03 10:22:19;;;;;;;8.25;4.65;;;;;;;14.60;47.36;102821.00;4920299;29;20123;-87
2023/05/03 10:25:08;;;;;;;9.80;4.63;;;;;;;14.57;46.99;102816.66;4918926;29;20147;-87
2023/05/03 10:27:43;;;;;;;8.27;4.80;;;;;;;14.41;48.53;102817.66;4914227;29;20039;-87
2023/05/03 10:30:27;;;;;;;7.22;4.55;;;;;;;14.38;48.22;102820.31;4919511;29;20493;-87
2023/05/03 10:32:53;;;;;;;15.23;5.10;;;;;;;14.41;49.21;102820.25;4919588;29;20035;-87
2023/05/03 10:35:18;;;;;;;9.02;5.53;;;;;;;14.36;48.56;102834.19;4922998;29;20110;-87
2023/05/03 10:37:47;;;;;;;11.10;5.55;;;;;;;14.20;46.33;102830.81;4919834;29;20496;-87
2023/05/03 10:40:14;;;;;;;9.27;5.05;;;;;;;14.20;48.96;102823.88;4910592;29;20056;-87
2023/05/03 10:42:45;;;;;;;8.88;4.80;;;;;;;14.28;48.63;102825.56;4918924;29;20119;-87
2023/05/03 10:45:27;;;;;;;7.60;4.75;;;;;;;14.20;47.31;102817.78;4918211;29;20055;-87
2023/05/03 10:48:10;;;;;;;8.48;5.20;;;;;;;14.18;49.25;102833.47;4918065;29;20035;-88
2023/05/03 10:50:39;;;;;;;9.20;5.00;;;;;;;14.18;48.71;102832.59;4916198;29;20066;-90
2023/05/03 10:53:04;;;;;;;9.10;4.80;;;;;;;14.10;48.88;102824.81;4918161;29;20056;-90
2023/05/03 10:55:31;;;;;;;10.80;5.03;;;;;;;14.10;49.76;102809.16;4917186;29;20035;-90
2023/05/03 10:57:58;;;;;;;9.02;4.90;;;;;;;14.20;48.34;102813.44;4917954;29;20027;-89
2023/05/03 11:00:36;;;;;;;12.02;4.65;;;;;;;14.33;48.78;102821.19;4902924;29;20032;-90
2023/05/03 11:03:01;;;;;;;8.77;5.13;;;;;;;14.30;47.38;102809.03;4920189;29;20039;-89
2023/05/03 11:05:28;;;;;;;9.20;5.15;;;;;;;14.23;48.53;102813.41;4901026;29;20035;-87
2023/05/03 11:08:13;;;;;;;12.20;5.40;;;;;;;14.33;48.97;102814.19;4918063;29;21365;-89
2023/05/03 11:10:39;;;;;;;9.05;5.00;;;;;;;14.42;47.61;102806.34;4920655;29;20032;-88
2023/05/03 11:13:05;;;;;;;11.27;5.07;;;;;;;14.49;48.35;102810.63;4903305;29;20412;-89
2023/05/03 11:15:31;;;;;;;12.48;5.40;;;;;;;14.41;47.46;102795.91;4919015;29;20674;-89
2023/05/03 11:17:56;;;;;;;19.95;5.75;;;;;;;14.41;49.40;102806.34;4917580;29;20070;-89
2023/05/03 11:20:22;;;;;;;8.20;5.32;;;;;;;14.41;49.46;102801.13;4917412;29;20027;-87
2023/05/03 11:22:48;;;;;;;16.85;5.63;;;;;;;14.39;50.09;102789.88;4917863;29;20088;-86
2023/05/03 11:25:16;;;;;;;10.38;5.40;;;;;;;14.46;48.34;102794.16;4917717;29;20059;-85
2023/05/03 11:27:42;;;;;;;15.15;5.40;;;;;;;14.51;48.84;102794.97;4916605;29;20067;-86